createdAt,value
2018-03-22T00:01:05.864Z,21.80
2018-03-22T00:03:33.904Z,14.43
2018-03-22T00:06:01.849Z,24.63
2018-03-22T00:08:29.741Z,23.93
2018-03-22T00:10:57.759Z,19.47
2018-03-22T00:13:25.515Z,29.53
2018-03-22T00:15:53.262Z,17.90
2018-03-22T00:18:21.420Z,23.33
2018-03-22T00:20:49.252Z,25.87
2018-03-22T00:23:17.009Z,19.57
2018-03-22T00:25:45.024Z,19.77
2018-03-22T00:28:12.983Z,21.40
2018-03-22T00:33:14.813Z,20.70
2018-03-22T00:35:42.584Z,20.27
2018-03-22T00:40:44.633Z,21.73
2018-03-22T00:43:12.567Z,21.77
2018-03-22T00:45:40.313Z,26.53
2018-03-22T00:48:08.106Z,20.43
2018-03-22T00:50:36.411Z,20.07
2018-03-22T00:53:04.157Z,17.00
2018-03-22T00:55:32.110Z,14.97
2018-03-22T00:58:00.207Z,25.13
2018-03-22T01:00:28.273Z,23.20
2018-03-22T01:02:56.238Z,20.67
2018-03-22T01:05:23.990Z,17.30
2018-03-22T01:07:51.857Z,25.73
2018-03-22T01:10:19.614Z,27.90
2018-03-22T01:12:47.448Z,28.17
2018-03-22T01:15:15.201Z,16.30
2018-03-22T01:17:42.972Z,19.90
2018-03-22T01:20:10.726Z,29.30
2018-03-22T01:22:38.500Z,21.33
2018-03-22T01:25:06.266Z,25.07
2018-03-22T01:27:34.017Z,18.90
2018-03-22T01:30:01.846Z,18.23
2018-03-22T01:32:29.611Z,23.87
2018-03-22T01:34:57.453Z,26.90
2018-03-22T01:37:25.195Z,26.07
2018-03-22T01:39:52.958Z,23.10
2018-03-22T01:42:20.945Z,19.50
2018-03-22T01:44:48.692Z,22.13
2018-03-22T01:47:16.460Z,23.50
2018-03-22T01:49:44.224Z,23.40
2018-03-22T01:52:12.042Z,17.63
2018-03-22T01:54:39.843Z,23.63
2018-03-22T01:57:07.677Z,22.03
2018-03-22T01:59:35.419Z,23.90
2018-03-22T02:02:03.367Z,21.13
2018-03-22T02:04:31.297Z,18.17
2018-03-22T02:06:59.052Z,19.40
2018-03-22T02:09:26.808Z,20.13
2018-03-22T02:11:54.550Z,19.90
2018-03-22T02:14:22.412Z,23.13
2018-03-22T02:16:50.216Z,21.60
2018-03-22T02:19:17.961Z,18.30
2018-03-22T02:21:45.719Z,21.63
2018-03-22T02:24:13.505Z,21.23
2018-03-22T02:26:41.326Z,17.80
2018-03-22T02:29:09.073Z,17.93
2018-03-22T02:31:36.856Z,20.43
2018-03-22T02:34:04.607Z,25.03
2018-03-22T02:36:32.360Z,27.50
2018-03-22T02:39:00.131Z,17.03
2018-03-22T02:41:27.882Z,35.57
2018-03-22T02:43:55.641Z,19.50
2018-03-22T02:46:23.431Z,18.80
2018-03-22T02:48:51.265Z,20.70
2018-03-22T02:51:19.028Z,22.80
2018-03-22T02:53:46.922Z,19.40
2018-03-22T02:56:14.741Z,28.10
2018-03-22T02:58:42.505Z,17.77
2018-03-22T03:01:10.460Z,19.20
2018-03-22T03:03:38.216Z,14.60
2018-03-22T03:06:06.052Z,20.33
2018-03-22T03:08:33.857Z,17.90
2018-03-22T03:11:01.673Z,19.03
2018-03-22T03:13:29.496Z,17.93
2018-03-22T03:15:57.270Z,15.67
2018-03-22T03:18:25.007Z,24.00
2018-03-22T03:20:52.932Z,19.83
2018-03-22T03:23:20.840Z,20.10
2018-03-22T03:25:48.657Z,24.00
2018-03-22T03:28:16.485Z,24.90
2018-03-22T03:30:44.375Z,26.53
2018-03-22T03:33:12.392Z,16.47
2018-03-22T03:35:40.145Z,27.37
2018-03-22T03:38:08.046Z,22.80
2018-03-22T03:40:35.792Z,20.93
2018-03-22T03:43:03.537Z,23.73
2018-03-22T03:45:31.338Z,18.20
2018-03-22T03:47:59.193Z,18.90
2018-03-22T03:50:27.844Z,34.27
2018-03-22T03:52:55.809Z,17.00
2018-03-22T03:55:23.590Z,27.70
2018-03-22T03:57:51.340Z,24.40
2018-03-22T04:00:19.215Z,24.27
2018-03-22T04:02:46.963Z,23.93
2018-03-22T04:05:14.710Z,30.40
2018-03-22T04:07:42.511Z,20.87
2018-03-22T04:10:10.304Z,26.27
2018-03-22T04:12:38.170Z,35.70
2018-03-22T04:15:05.954Z,34.20
2018-03-22T04:17:33.712Z,19.73
2018-03-22T04:20:01.574Z,25.47
2018-03-22T04:22:29.350Z,19.70
2018-03-22T04:24:57.097Z,28.83
2018-03-22T04:27:24.845Z,24.27
2018-03-22T04:29:52.682Z,21.67
2018-03-22T04:32:20.452Z,29.17
2018-03-22T04:34:48.355Z,21.13
2018-03-22T04:37:16.253Z,31.07
2018-03-22T04:39:44.086Z,29.60
2018-03-22T04:42:11.976Z,22.77
2018-03-22T04:44:39.915Z,22.23
2018-03-22T04:47:07.920Z,20.00
2018-03-22T04:49:36.087Z,27.30
2018-03-22T04:52:03.951Z,25.50
2018-03-22T04:54:31.752Z,27.00
2018-03-22T04:56:59.504Z,26.10
2018-03-22T04:59:27.331Z,20.20
2018-03-22T05:01:55.081Z,25.27
2018-03-22T05:04:22.825Z,26.57
2018-03-22T05:06:50.593Z,25.60
2018-03-22T05:09:18.531Z,22.50
2018-03-22T05:11:46.407Z,29.87
2018-03-22T05:14:14.292Z,21.07
2018-03-22T05:16:42.164Z,24.53
2018-03-22T05:19:09.918Z,23.30
2018-03-22T05:21:37.782Z,37.67
2018-03-22T05:24:05.616Z,32.30
2018-03-22T05:26:33.424Z,20.57
2018-03-22T05:29:01.288Z,33.20
2018-03-22T05:31:29.045Z,31.33
2018-03-22T05:33:57.116Z,26.90
2018-03-22T05:36:25.202Z,29.30
2018-03-22T05:38:53.184Z,29.00
2018-03-22T05:41:21.641Z,31.97
2018-03-22T05:43:49.437Z,55.43
2018-03-22T05:46:17.185Z,28.40
2018-03-22T05:48:45.031Z,30.33
2018-03-22T05:51:12.903Z,33.57
2018-03-22T05:53:40.763Z,32.00
2018-03-22T05:56:08.511Z,36.03
2018-03-22T05:58:36.283Z,39.40
2018-03-22T06:01:04.143Z,35.60
2018-03-22T06:03:31.939Z,34.23
2018-03-22T06:05:59.843Z,34.63
2018-03-22T06:08:27.689Z,39.43
2018-03-22T06:10:55.436Z,32.83
2018-03-22T06:13:23.254Z,29.70
2018-03-22T06:15:51.128Z,34.30
2018-03-22T06:18:18.869Z,41.07
2018-03-22T06:20:46.752Z,35.63
2018-03-22T06:23:14.559Z,32.47
2018-03-22T06:25:42.357Z,29.00
2018-03-22T06:28:10.235Z,24.43
2018-03-22T06:30:38.050Z,36.23
2018-03-22T06:33:05.986Z,36.53
2018-03-22T06:35:33.745Z,26.20
2018-03-22T06:38:01.677Z,35.73
2018-03-22T06:40:29.505Z,29.30
2018-03-22T06:42:57.268Z,32.90
2018-03-22T06:45:25.026Z,34.37
2018-03-22T06:47:52.775Z,37.57
2018-03-22T06:50:20.538Z,38.77
2018-03-22T06:52:48.276Z,37.63
2018-03-22T06:55:16.024Z,46.37
2018-03-22T06:57:44.031Z,47.23
2018-03-22T07:00:11.772Z,45.60
2018-03-22T07:02:39.542Z,42.93
2018-03-22T07:05:07.314Z,47.90
2018-03-22T07:10:08.999Z,45.40
2018-03-22T07:12:36.774Z,45.50
2018-03-22T07:15:04.536Z,42.47
2018-03-22T07:17:32.331Z,45.53
2018-03-22T07:20:00.076Z,46.10
2018-03-22T07:22:27.826Z,47.50
2018-03-22T07:24:55.704Z,49.73
2018-03-22T07:27:23.768Z,44.80
2018-03-22T07:29:51.800Z,54.57
2018-03-22T07:32:19.589Z,50.53
2018-03-22T07:34:47.363Z,59.77
2018-03-22T07:37:15.400Z,69.57
2018-03-22T07:39:43.287Z,72.30
2018-03-22T07:42:11.216Z,70.47
2018-03-22T07:44:41.095Z,67.33
2018-03-22T07:47:08.983Z,64.20
2018-03-22T07:49:36.796Z,53.60
2018-03-22T07:52:05.154Z,62.33
2018-03-22T07:54:32.936Z,66.10
2018-03-22T07:57:00.784Z,57.17
2018-03-22T07:59:28.607Z,56.20
2018-03-22T08:01:56.410Z,53.50
2018-03-22T08:04:24.232Z,45.40
2018-03-22T08:06:51.970Z,56.47
2018-03-22T08:09:20.053Z,43.63
2018-03-22T08:11:47.821Z,44.80
2018-03-22T08:14:15.846Z,52.70
2018-03-22T08:16:43.679Z,46.67
2018-03-22T08:19:11.541Z,38.73
2018-03-22T08:21:39.371Z,44.43
2018-03-22T08:24:07.393Z,37.70
2018-03-22T08:26:35.163Z,41.97
2018-03-22T08:29:02.996Z,41.10
2018-03-22T08:31:30.812Z,43.30
2018-03-22T08:33:58.715Z,39.87
2018-03-22T08:36:26.502Z,32.80
2018-03-22T08:38:54.491Z,43.30
2018-03-22T08:41:22.552Z,51.17
2018-03-22T08:43:50.311Z,49.07
2018-03-22T08:46:18.072Z,38.70
2018-03-22T08:48:45.996Z,40.13
2018-03-22T08:51:13.912Z,35.93
2018-03-22T08:53:41.606Z,43.63
2018-03-22T08:56:09.412Z,42.83
2018-03-22T08:58:37.090Z,44.73
2018-03-22T09:01:04.788Z,41.13
2018-03-22T09:03:32.450Z,42.87
2018-03-22T09:06:00.132Z,53.83
2018-03-22T09:08:27.848Z,49.83
2018-03-22T09:10:55.577Z,47.20
2018-03-22T09:13:23.365Z,54.90
2018-03-22T09:15:51.045Z,48.63
2018-03-22T09:18:18.764Z,57.00
2018-03-22T09:20:46.426Z,58.77
2018-03-22T09:23:14.194Z,56.47
2018-03-22T09:25:41.840Z,53.73
2018-03-22T09:28:09.491Z,56.37
2018-03-22T09:30:37.254Z,58.30
2018-03-22T09:33:05.137Z,66.30
2018-03-22T09:35:32.807Z,61.33
2018-03-22T09:38:00.614Z,61.57
2018-03-22T09:40:28.318Z,54.13
2018-03-22T09:42:56.204Z,60.40
2018-03-22T09:45:24.796Z,72.23
2018-03-22T09:47:52.591Z,59.40
2018-03-22T09:50:20.255Z,63.00
2018-03-22T09:52:48.058Z,75.97
2018-03-22T09:55:15.821Z,72.77
2018-03-22T09:57:43.728Z,81.80
2018-03-22T10:00:11.415Z,93.57
2018-03-22T10:02:39.094Z,91.33
2018-03-22T10:05:06.774Z,84.57
2018-03-22T10:07:34.460Z,100.27
2018-03-22T10:10:02.252Z,93.27
2018-03-22T10:12:29.915Z,94.03
2018-03-22T10:14:58.085Z,95.67
2018-03-22T10:17:25.760Z,101.87
2018-03-22T10:19:53.601Z,91.30
2018-03-22T10:22:21.660Z,99.17
2018-03-22T10:24:49.385Z,108.53
2018-03-22T10:27:17.591Z,96.90
2018-03-22T10:29:45.268Z,96.33
2018-03-22T10:32:12.949Z,108.70
2018-03-22T10:34:40.638Z,93.23
2018-03-22T10:37:08.607Z,93.53
2018-03-22T10:39:36.282Z,102.50
2018-03-22T10:42:04.192Z,100.70
2018-03-22T10:44:31.901Z,99.80
2018-03-22T10:46:59.662Z,106.93
2018-03-22T10:49:27.338Z,102.67
2018-03-22T10:51:55.436Z,108.40
2018-03-22T10:54:23.286Z,109.60
2018-03-22T10:56:51.312Z,110.27
2018-03-22T10:59:18.999Z,113.97
2018-03-22T11:01:52.374Z,88.43
2018-03-22T11:04:20.816Z,86.57
2018-03-22T11:06:48.481Z,101.70
2018-03-22T11:09:16.133Z,98.43
2018-03-22T11:11:43.828Z,101.97
2018-03-22T11:14:11.669Z,107.60
2018-03-22T11:16:39.323Z,103.10
2018-03-22T11:19:07.019Z,111.60
2018-03-22T11:21:34.677Z,109.63
2018-03-22T11:24:02.349Z,103.37
2018-03-22T11:26:30.025Z,104.90
2018-03-22T11:28:57.716Z,110.60
2018-03-22T11:31:25.505Z,108.10
2018-03-22T11:33:53.180Z,104.90
2018-03-22T11:36:20.987Z,100.50
2018-03-22T11:38:48.803Z,110.33
2018-03-22T11:41:16.637Z,104.40
2018-03-22T11:43:44.705Z,107.50
2018-03-22T11:46:12.503Z,112.60
2018-03-22T11:48:40.188Z,102.10
2018-03-22T11:51:07.856Z,116.37
2018-03-22T11:53:35.519Z,118.93
2018-03-22T11:56:03.209Z,119.13
2018-03-22T11:58:30.881Z,116.30
2018-03-22T12:00:58.543Z,115.10
2018-03-22T12:03:26.224Z,136.63
2018-03-22T12:05:53.892Z,122.17
2018-03-22T12:08:21.651Z,129.20
2018-03-22T12:10:49.327Z,112.20
2018-03-22T12:13:17.561Z,106.23
2018-03-22T12:15:51.048Z,101.97
2018-03-22T12:18:18.710Z,99.13
2018-03-22T12:20:46.460Z,91.93
2018-03-22T12:23:14.138Z,98.97
2018-03-22T12:25:41.841Z,99.87
2018-03-22T12:28:09.725Z,105.10
2018-03-22T12:30:37.507Z,108.07
2018-03-22T12:33:05.173Z,89.60
2018-03-22T12:35:32.849Z,98.73
2018-03-22T12:38:00.527Z,88.20
2018-03-22T12:40:28.195Z,85.57
2018-03-22T12:42:55.856Z,88.43
2018-03-22T12:45:23.536Z,102.17
2018-03-22T12:47:51.220Z,88.73
2018-03-22T12:50:18.881Z,84.70
2018-03-22T12:52:46.563Z,85.77
2018-03-22T12:55:14.270Z,101.00
2018-03-22T12:57:41.951Z,96.73
2018-03-22T13:00:09.628Z,75.00
2018-03-22T13:02:37.514Z,94.23
2018-03-22T13:05:05.184Z,87.40
2018-03-22T13:07:32.864Z,79.50
2018-03-22T13:10:00.537Z,67.73
2018-03-22T13:12:28.197Z,74.20
2018-03-22T13:14:55.888Z,95.53
2018-03-22T13:17:23.541Z,87.10
2018-03-22T13:19:51.224Z,85.77
2018-03-22T13:22:18.896Z,82.80
2018-03-22T13:24:46.561Z,78.67
2018-03-22T13:27:14.224Z,83.23
2018-03-22T13:29:41.896Z,79.60
2018-03-22T13:32:09.556Z,79.17
2018-03-22T13:34:37.208Z,83.40
2018-03-22T13:37:04.884Z,73.23
2018-03-22T13:39:32.559Z,75.07
2018-03-22T13:42:00.228Z,72.43
2018-03-22T13:44:27.907Z,83.00
2018-03-22T13:46:55.575Z,77.87
2018-03-22T13:49:23.263Z,70.63
2018-03-22T13:51:50.949Z,58.93
2018-03-22T13:54:18.599Z,60.63
2018-03-22T13:56:46.265Z,64.17
2018-03-22T13:59:13.940Z,63.00
2018-03-22T14:01:41.608Z,65.40
2018-03-22T14:04:09.272Z,59.77
2018-03-22T14:06:36.957Z,60.53
2018-03-22T14:09:04.627Z,62.37
2018-03-22T14:11:32.284Z,52.10
2018-03-22T14:13:59.968Z,55.43
2018-03-22T14:16:27.658Z,51.53
2018-03-22T14:18:55.312Z,49.77
2018-03-22T14:21:22.993Z,57.23
2018-03-22T14:23:50.772Z,60.60
2018-03-22T14:26:18.428Z,58.00
2018-03-22T14:28:47.134Z,57.10
2018-03-22T14:31:14.792Z,55.27
2018-03-22T14:33:42.593Z,56.03
2018-03-22T14:36:10.302Z,57.03
2018-03-22T14:38:38.081Z,64.73
2018-03-22T14:41:05.729Z,60.93
2018-03-22T14:43:33.404Z,57.63
2018-03-22T14:46:01.055Z,54.97
2018-03-22T14:48:28.716Z,59.30
2018-03-22T14:50:56.392Z,56.87
2018-03-22T14:53:24.066Z,55.37
2018-03-22T14:55:51.839Z,51.63
2018-03-22T14:58:19.529Z,53.70
2018-03-22T15:00:47.215Z,53.73
2018-03-22T15:03:14.877Z,54.87
2018-03-22T15:05:42.558Z,52.53
2018-03-22T15:08:10.218Z,49.73
2018-03-22T15:10:37.891Z,51.37
2018-03-22T15:13:05.655Z,55.53
2018-03-22T15:15:33.320Z,58.57
2018-03-22T15:18:01.018Z,66.57
2018-03-22T15:20:28.733Z,59.13
2018-03-22T15:22:56.420Z,52.60
2018-03-22T15:25:24.253Z,53.40
2018-03-22T15:27:51.931Z,53.23
2018-03-22T15:30:19.631Z,61.87
2018-03-22T15:32:47.378Z,55.13
2018-03-22T15:35:15.288Z,56.37
2018-03-22T15:37:43.022Z,51.80
2018-03-22T15:40:10.679Z,60.70
2018-03-22T15:42:38.365Z,48.10
2018-03-22T15:45:06.025Z,58.33
2018-03-22T15:47:34.243Z,50.73
2018-03-22T15:50:02.060Z,55.37
2018-03-22T15:52:29.755Z,52.57
2018-03-22T15:54:57.423Z,53.20
2018-03-22T15:57:25.231Z,59.17
2018-03-22T15:59:53.009Z,51.33
2018-03-22T16:02:20.674Z,51.47
2018-03-22T16:04:48.358Z,58.67
2018-03-22T16:07:16.017Z,53.43
2018-03-22T16:09:43.668Z,50.37
2018-03-22T16:12:11.348Z,58.70
2018-03-22T16:14:39.006Z,53.63
2018-03-22T16:17:06.660Z,58.63
2018-03-22T16:19:34.462Z,56.60
2018-03-22T16:22:02.217Z,54.83
2018-03-22T16:24:29.932Z,64.17
2018-03-22T16:26:57.628Z,60.73
2018-03-22T16:29:25.296Z,57.30
2018-03-22T16:31:52.982Z,71.20
2018-03-22T16:34:20.677Z,55.70
2018-03-22T16:36:48.363Z,59.93
2018-03-22T16:39:16.027Z,56.60
2018-03-22T16:41:43.772Z,62.27
2018-03-22T16:44:11.437Z,75.67
2018-03-22T16:46:39.245Z,64.77
2018-03-22T16:49:06.943Z,66.73
2018-03-22T16:51:34.633Z,71.50
2018-03-22T16:54:02.448Z,73.23
2018-03-22T16:56:30.243Z,69.63
2018-03-22T16:58:57.911Z,72.07
2018-03-22T17:01:25.671Z,69.17
2018-03-22T17:03:53.357Z,72.60
2018-03-22T17:06:22.630Z,77.10
2018-03-22T17:08:50.406Z,71.20
2018-03-22T17:11:18.221Z,70.30
2018-03-22T17:13:45.911Z,67.50
2018-03-22T17:16:13.794Z,76.93
2018-03-22T17:18:41.482Z,69.67
2018-03-22T17:21:09.307Z,82.83
2018-03-22T17:23:37.074Z,66.50
2018-03-22T17:26:04.891Z,81.50
2018-03-22T17:28:32.555Z,77.13
2018-03-22T17:31:00.801Z,88.43
2018-03-22T17:33:28.484Z,86.23
2018-03-22T17:35:56.237Z,75.10
2018-03-22T17:38:23.892Z,100.93
2018-03-22T17:40:52.319Z,88.67
2018-03-22T17:43:19.981Z,91.50
2018-03-22T17:45:47.648Z,82.20
2018-03-22T17:48:15.540Z,92.50
2018-03-22T17:50:43.191Z,87.80
2018-03-22T17:53:10.849Z,86.37
2018-03-22T17:55:38.541Z,99.63
2018-03-22T17:58:06.320Z,95.50
2018-03-22T18:00:34.085Z,103.20
2018-03-22T18:03:01.873Z,102.20
2018-03-22T18:05:29.544Z,93.53
2018-03-22T18:07:57.414Z,98.80
2018-03-22T18:10:25.288Z,109.00
2018-03-22T18:12:53.013Z,105.70
2018-03-22T18:15:20.841Z,90.60
2018-03-22T18:17:48.808Z,98.70
2018-03-22T18:20:16.571Z,104.80
2018-03-22T18:22:44.501Z,92.27
2018-03-22T18:25:12.263Z,91.33
2018-03-22T18:27:40.232Z,99.50
2018-03-22T18:30:07.924Z,98.10
2018-03-22T18:32:35.724Z,103.93
2018-03-22T18:35:03.383Z,86.10
2018-03-22T18:37:31.101Z,104.00
2018-03-22T18:39:58.776Z,101.17
2018-03-22T18:42:26.479Z,90.57
2018-03-22T18:44:54.299Z,110.23
2018-03-22T18:47:22.033Z,99.23
2018-03-22T18:49:49.688Z,102.43
2018-03-22T18:52:17.442Z,93.87
2018-03-22T18:54:45.206Z,107.40
2018-03-22T18:57:12.945Z,103.80
2018-03-22T18:59:40.609Z,113.03
2018-03-22T19:02:08.294Z,119.70
2018-03-22T19:04:35.958Z,98.90
2018-03-22T19:07:03.896Z,110.10
2018-03-22T19:09:31.615Z,107.03
2018-03-22T19:11:59.576Z,102.00
2018-03-22T19:14:27.270Z,104.53
2018-03-22T19:16:54.961Z,118.40
2018-03-22T19:19:22.668Z,109.17
2018-03-22T19:21:51.266Z,108.63
2018-03-22T19:24:18.967Z,102.97
2018-03-22T19:26:46.624Z,98.73
2018-03-22T19:29:14.437Z,114.20
2018-03-22T19:31:42.166Z,99.57
2018-03-22T19:34:09.890Z,100.50
2018-03-22T19:36:37.549Z,94.97
2018-03-22T19:39:05.286Z,106.57
2018-03-22T19:41:32.944Z,95.77
2018-03-22T19:44:00.601Z,96.87
2018-03-22T19:46:28.508Z,102.63
2018-03-22T19:48:56.311Z,98.37
2018-03-22T19:51:23.976Z,98.63
2018-03-22T19:53:52.425Z,105.40
2018-03-22T19:56:20.193Z,103.40
2018-03-22T19:58:48.116Z,112.93
2018-03-22T20:01:15.813Z,119.93
2018-03-22T20:03:43.738Z,124.47
2018-03-22T20:06:11.448Z,123.23
2018-03-22T20:08:39.268Z,124.00
2018-03-22T20:11:06.949Z,135.43
2018-03-22T20:13:34.621Z,132.53
2018-03-22T20:16:02.559Z,136.73
2018-03-22T20:18:30.224Z,127.97
2018-03-22T20:20:58.028Z,116.60
2018-03-22T20:23:25.772Z,121.60
2018-03-22T20:25:53.449Z,130.03
2018-03-22T20:28:21.807Z,121.83
2018-03-22T20:30:49.483Z,123.73
2018-03-22T20:33:17.157Z,120.53
2018-03-22T20:35:44.819Z,127.70
2018-03-22T20:38:12.717Z,122.13
2018-03-22T20:40:40.417Z,140.93
2018-03-22T20:43:08.162Z,139.40
2018-03-22T20:45:35.892Z,135.90
2018-03-22T20:48:03.662Z,128.70
2018-03-22T20:50:31.494Z,146.70
2018-03-22T20:52:59.325Z,134.80
2018-03-22T20:55:27.020Z,132.33
2018-03-22T20:57:54.692Z,138.67
2018-03-22T21:00:22.380Z,124.33
2018-03-22T21:02:50.037Z,160.70
2018-03-22T21:05:17.841Z,146.43
2018-03-22T21:07:45.625Z,131.23
2018-03-22T21:10:13.358Z,143.73
2018-03-22T21:12:41.026Z,144.57
2018-03-22T21:15:08.705Z,136.87
2018-03-22T21:17:36.375Z,116.60
2018-03-22T21:20:04.060Z,116.70
2018-03-22T21:22:31.768Z,113.60
2018-03-22T21:24:59.575Z,120.10
2018-03-22T21:27:27.317Z,114.20
2018-03-22T21:29:55.004Z,119.63
2018-03-22T21:32:22.664Z,99.93
2018-03-22T21:34:50.584Z,112.23
2018-03-22T21:37:18.547Z,97.17
2018-03-22T21:39:46.232Z,103.13
2018-03-22T21:42:13.889Z,91.07
2018-03-22T21:44:41.653Z,97.50
2018-03-22T21:47:21.043Z,96.40
2018-03-22T21:49:48.725Z,92.23
2018-03-22T21:52:28.101Z,91.83
2018-03-22T21:54:56.152Z,93.73
2018-03-22T21:57:23.832Z,97.73
2018-03-22T21:59:51.655Z,96.23
2018-03-22T22:02:19.337Z,88.77
2018-03-22T22:04:47.012Z,109.87
2018-03-22T22:07:14.924Z,97.13
2018-03-22T22:09:42.675Z,103.80
2018-03-22T22:12:10.482Z,97.13
2018-03-22T22:14:38.148Z,115.00
2018-03-22T22:17:05.878Z,117.20
2018-03-22T22:19:33.543Z,107.20
2018-03-22T22:22:01.204Z,94.23
2018-03-22T22:24:29.312Z,98.90
2018-03-22T22:26:57.156Z,101.87
2018-03-22T22:29:24.937Z,105.10
2018-03-22T22:31:52.641Z,87.90
2018-03-22T22:34:20.334Z,93.53
2018-03-22T22:36:48.165Z,92.60
2018-03-22T22:39:15.905Z,91.33
2018-03-22T22:41:43.835Z,96.80
2018-03-22T22:44:11.495Z,88.70
2018-03-22T22:46:39.446Z,84.40
2018-03-22T22:49:07.115Z,78.80
2018-03-22T22:51:34.819Z,98.87
2018-03-22T22:54:02.606Z,95.93
2018-03-22T22:56:30.720Z,93.47
2018-03-22T22:58:58.398Z,82.33
2018-03-22T23:01:26.426Z,80.80
2018-03-22T23:03:54.188Z,77.10
2018-03-22T23:06:21.841Z,76.17
2018-03-22T23:08:49.727Z,80.77
2018-03-22T23:11:17.476Z,82.60
2018-03-22T23:13:45.128Z,74.40
2018-03-22T23:16:12.815Z,70.27
2018-03-22T23:18:40.531Z,72.33
2018-03-22T23:21:08.205Z,69.67
2018-03-22T23:23:35.884Z,73.87
2018-03-22T23:26:03.549Z,60.03
2018-03-22T23:28:31.345Z,63.03
2018-03-22T23:30:59.025Z,54.57
2018-03-22T23:33:26.685Z,53.83
2018-03-22T23:35:54.549Z,54.83
2018-03-22T23:38:22.231Z,46.20
2018-03-22T23:40:50.013Z,38.20
2018-03-22T23:43:17.665Z,40.57
2018-03-22T23:45:45.493Z,37.20
2018-03-22T23:48:13.156Z,34.60
2018-03-22T23:50:40.841Z,40.33
2018-03-22T23:53:08.635Z,36.43
2018-03-22T23:55:36.518Z,34.80
2018-03-22T23:58:04.179Z,37.80
